sensor_id;sensor_type;location;lat;lon;timestamp;P1;durP1;ratioP1;P2;durP2;ratioP2
9424;SDS011;17139;52.140;11.636;2023-08-21T00:01:43;5.63;;;5.13;;
9424;SDS011;17139;52.140;11.636;2023-08-21T00:04:10;7.13;;;4.28;;
9424;SDS011;17139;52.140;11.636;2023-08-21T00:06:37;5.10;;;4.60;;
9424;SDS011;17139;52.140;11.636;2023-08-21T00:09:04;8.45;;;5.40;;
9424;SDS011;17139;52.140;11.636;2023-08-21T00:11:31;5.05;;;4.65;;
9424;SDS011;17139;52.140;11.636;2023-08-21T00:13:59;7.40;;;4.75;;
9424;SDS011;17139;52.140;11.636;2023-08-21T00:16:26;7.60;;;4.15;;
9424;SDS011;17139;52.140;11.636;2023-08-21T00:18:53;5.82;;;4.80;;
9424;SDS011;17139;52.140;11.636;2023-08-21T00:21:20;6.78;;;4.80;;
9424;SDS011;17139;52.140;11.636;2023-08-21T00:23:47;5.03;;;4.45;;
9424;SDS011;17139;52.140;11.636;2023-08-21T00:26:14;10.63;;;4.28;;
9424;SDS011;17139;52.140;11.636;2023-08-21T00:28:41;7.10;;;4.93;;
9424;SDS011;17139;52.140;11.636;2023-08-21T00:31:10;4.53;;;4.32;;
9424;SDS011;17139;52.140;11.636;2023-08-21T00:33:37;3.85;;;3.65;;
9424;SDS011;17139;52.140;11.636;2023-08-21T00:36:04;6.18;;;4.38;;
9424;SDS011;17139;52.140;11.636;2023-08-21T00:38:31;5.35;;;4.10;;
9424;SDS011;17139;52.140;11.636;2023-08-21T00:40:58;4.47;;;3.70;;
9424;SDS011;17139;52.140;11.636;2023-08-21T00:43:25;3.70;;;3.40;;
9424;SDS011;17139;52.140;11.636;2023-08-21T00:45:52;4.10;;;3.80;;
9424;SDS011;17139;52.140;11.636;2023-08-21T00:48:20;4.00;;;3.80;;
9424;SDS011;17139;52.140;11.636;2023-08-21T00:50:48;5.18;;;4.35;;
9424;SDS011;17139;52.140;11.636;2023-08-21T00:53:15;4.60;;;4.30;;
9424;SDS011;17139;52.140;11.636;2023-08-21T00:55:43;4.53;;;4.22;;
9424;SDS011;17139;52.140;11.636;2023-08-21T00:58:10;4.22;;;3.95;;
9424;SDS011;17139;52.140;11.636;2023-08-21T01:00:38;4.07;;;3.88;;
9424;SDS011;17139;52.140;11.636;2023-08-21T01:03:05;4.95;;;4.18;;
9424;SDS011;17139;52.140;11.636;2023-08-21T01:05:35;3.85;;;3.53;;
9424;SDS011;17139;52.140;11.636;2023-08-21T01:08:03;3.65;;;3.45;;
9424;SDS011;17139;52.140;11.636;2023-08-21T01:10:39;3.67;;;3.47;;
9424;SDS011;17139;52.140;11.636;2023-08-21T01:13:11;4.32;;;3.90;;
9424;SDS011;17139;52.140;11.636;2023-08-21T01:15:45;4.03;;;3.90;;
9424;SDS011;17139;52.140;11.636;2023-08-21T01:18:13;4.43;;;4.22;;
9424;SDS011;17139;52.140;11.636;2023-08-21T01:20:43;4.10;;;3.90;;
9424;SDS011;17139;52.140;11.636;2023-08-21T01:23:10;4.47;;;3.97;;
9424;SDS011;17139;52.140;11.636;2023-08-21T01:25:52;6.40;;;4.20;;
9424;SDS011;17139;52.140;11.636;2023-08-21T01:28:19;3.97;;;3.78;;
9424;SDS011;17139;52.140;11.636;2023-08-21T01:30:46;3.60;;;3.50;;
9424;SDS011;17139;52.140;11.636;2023-08-21T01:33:15;4.88;;;4.47;;
9424;SDS011;17139;52.140;11.636;2023-08-21T01:35:43;3.92;;;3.50;;
9424;SDS011;17139;52.140;11.636;2023-08-21T01:38:10;6.93;;;4.43;;
9424;SDS011;17139;52.140;11.636;2023-08-21T01:40:39;4.43;;;3.25;;
9424;SDS011;17139;52.140;11.636;2023-08-21T01:43:06;6.25;;;3.63;;
9424;SDS011;17139;52.140;11.636;2023-08-21T01:45:33;3.88;;;3.53;;
9424;SDS011;17139;52.140;11.636;2023-08-21T01:48:00;3.67;;;3.58;;
9424;SDS011;17139;52.140;11.636;2023-08-21T01:50:27;3.95;;;3.42;;
9424;SDS011;17139;52.140;11.636;2023-08-21T01:52:55;4.30;;;4.07;;
9424;SDS011;17139;52.140;11.636;2023-08-21T01:55:22;4.10;;;3.80;;
9424;SDS011;17139;52.140;11.636;2023-08-21T01:57:50;4.57;;;4.28;;
9424;SDS011;17139;52.140;11.636;2023-08-21T02:00:17;4.18;;;3.88;;
9424;SDS011;17139;52.140;11.636;2023-08-21T02:02:44;4.10;;;3.90;;
9424;SDS011;17139;52.140;11.636;2023-08-21T02:05:11;3.90;;;3.63;;
9424;SDS011;17139;52.140;11.636;2023-08-21T02:07:38;3.90;;;3.70;;
9424;SDS011;17139;52.140;11.636;2023-08-21T02:10:06;4.07;;;3.72;;
9424;SDS011;17139;52.140;11.636;2023-08-21T02:12:34;4.22;;;3.92;;
9424;SDS011;17139;52.140;11.636;2023-08-21T02:15:02;4.95;;;4.55;;
9424;SDS011;17139;52.140;11.636;2023-08-21T02:17:30;4.32;;;4.20;;
9424;SDS011;17139;52.140;11.636;2023-08-21T02:19:57;4.60;;;4.40;;
9424;SDS011;17139;52.140;11.636;2023-08-21T02:22:24;5.90;;;3.78;;
9424;SDS011;17139;52.140;11.636;2023-08-21T02:24:51;3.38;;;3.28;;
9424;SDS011;17139;52.140;11.636;2023-08-21T02:27:18;3.63;;;3.50;;
9424;SDS011;17139;52.140;11.636;2023-08-21T02:29:45;3.85;;;3.65;;
9424;SDS011;17139;52.140;11.636;2023-08-21T02:32:13;4.30;;;4.05;;
9424;SDS011;17139;52.140;11.636;2023-08-21T02:34:40;4.68;;;4.40;;
9424;SDS011;17139;52.140;11.636;2023-08-21T02:37:07;4.32;;;3.92;;
9424;SDS011;17139;52.140;11.636;2023-08-21T02:39:34;4.40;;;4.10;;
9424;SDS011;17139;52.140;11.636;2023-08-21T02:42:01;4.35;;;4.05;;
9424;SDS011;17139;52.140;11.636;2023-08-21T02:44:28;4.30;;;3.97;;
9424;SDS011;17139;52.140;11.636;2023-08-21T02:46:56;4.22;;;4.00;;
9424;SDS011;17139;52.140;11.636;2023-08-21T02:49:25;4.30;;;4.00;;
9424;SDS011;17139;52.140;11.636;2023-08-21T02:51:52;3.67;;;3.50;;
9424;SDS011;17139;52.140;11.636;2023-08-21T02:54:19;10.00;;;4.22;;
9424;SDS011;17139;52.140;11.636;2023-08-21T02:56:46;4.40;;;4.03;;
9424;SDS011;17139;52.140;11.636;2023-08-21T02:59:13;4.95;;;4.55;;
9424;SDS011;17139;52.140;11.636;2023-08-21T03:01:40;5.28;;;4.93;;
9424;SDS011;17139;52.140;11.636;2023-08-21T03:04:07;4.28;;;3.95;;
9424;SDS011;17139;52.140;11.636;2023-08-21T03:06:35;5.32;;;4.25;;
9424;SDS011;17139;52.140;11.636;2023-08-21T03:09:02;4.32;;;3.97;;
9424;SDS011;17139;52.140;11.636;2023-08-21T03:11:29;3.97;;;3.83;;
9424;SDS011;17139;52.140;11.636;2023-08-21T03:13:56;5.30;;;4.90;;
9424;SDS011;17139;52.140;11.636;2023-08-21T03:16:23;4.38;;;3.97;;
9424;SDS011;17139;52.140;11.636;2023-08-21T03:18:54;4.78;;;4.47;;
9424;SDS011;17139;52.140;11.636;2023-08-21T03:21:21;4.05;;;3.80;;
9424;SDS011;17139;52.140;11.636;2023-08-21T03:23:51;4.93;;;4.50;;
9424;SDS011;17139;52.140;11.636;2023-08-21T03:26:20;4.32;;;4.03;;
9424;SDS011;17139;52.140;11.636;2023-08-21T03:28:47;4.22;;;3.92;;
9424;SDS011;17139;52.140;11.636;2023-08-21T03:31:14;4.68;;;3.75;;
9424;SDS011;17139;52.140;11.636;2023-08-21T03:33:41;3.72;;;3.45;;
9424;SDS011;17139;52.140;11.636;2023-08-21T03:36:08;4.25;;;4.07;;
9424;SDS011;17139;52.140;11.636;2023-08-21T03:38:35;4.60;;;4.40;;
9424;SDS011;17139;52.140;11.636;2023-08-21T03:41:04;5.65;;;4.35;;
9424;SDS011;17139;52.140;11.636;2023-08-21T03:43:31;4.67;;;4.40;;
9424;SDS011;17139;52.140;11.636;2023-08-21T03:45:58;4.18;;;3.97;;
9424;SDS011;17139;52.140;11.636;2023-08-21T03:48:25;4.20;;;3.90;;
9424;SDS011;17139;52.140;11.636;2023-08-21T03:50:52;4.25;;;3.95;;
9424;SDS011;17139;52.140;11.636;2023-08-21T03:53:19;3.80;;;3.70;;
9424;SDS011;17139;52.140;11.636;2023-08-21T03:55:46;4.38;;;3.97;;
9424;SDS011;17139;52.140;11.636;2023-08-21T03:58:14;4.03;;;3.83;;
9424;SDS011;17139;52.140;11.636;2023-08-21T04:00:41;4.63;;;4.38;;
9424;SDS011;17139;52.140;11.636;2023-08-21T04:03:09;4.78;;;4.47;;
9424;SDS011;17139;52.140;11.636;2023-08-21T04:05:37;5.90;;;4.72;;
9424;SDS011;17139;52.140;11.636;2023-08-21T04:08:04;4.55;;;4.25;;
9424;SDS011;17139;52.140;11.636;2023-08-21T04:10:31;5.28;;;4.47;;
9424;SDS011;17139;52.140;11.636;2023-08-21T04:12:58;4.28;;;3.97;;
9424;SDS011;17139;52.140;11.636;2023-08-21T04:15:26;4.78;;;3.60;;
9424;SDS011;17139;52.140;11.636;2023-08-21T04:17:54;5.03;;;4.32;;
9424;SDS011;17139;52.140;11.636;2023-08-21T04:20:21;5.07;;;4.30;;
9424;SDS011;17139;52.140;11.636;2023-08-21T04:22:48;4.28;;;3.97;;
9424;SDS011;17139;52.140;11.636;2023-08-21T04:25:15;5.30;;;4.63;;
9424;SDS011;17139;52.140;11.636;2023-08-21T04:27:42;5.20;;;4.80;;
9424;SDS011;17139;52.140;11.636;2023-08-21T04:30:10;4.63;;;4.32;;
9424;SDS011;17139;52.140;11.636;2023-08-21T04:32:39;4.70;;;4.38;;
9424;SDS011;17139;52.140;11.636;2023-08-21T04:35:06;5.30;;;4.78;;
9424;SDS011;17139;52.140;11.636;2023-08-21T04:37:37;4.72;;;4.50;;
9424;SDS011;17139;52.140;11.636;2023-08-21T04:40:05;8.10;;;4.45;;
9424;SDS011;17139;52.140;11.636;2023-08-21T04:42:33;7.37;;;5.30;;
9424;SDS011;17139;52.140;11.636;2023-08-21T04:45:00;4.30;;;4.05;;
9424;SDS011;17139;52.140;11.636;2023-08-21T04:47:27;5.80;;;5.30;;
9424;SDS011;17139;52.140;11.636;2023-08-21T04:49:56;5.95;;;4.90;;
9424;SDS011;17139;52.140;11.636;2023-08-21T04:52:23;5.00;;;4.43;;
9424;SDS011;17139;52.140;11.636;2023-08-21T04:54:51;5.00;;;4.60;;
9424;SDS011;17139;52.140;11.636;2023-08-21T04:57:18;6.72;;;4.78;;
9424;SDS011;17139;52.140;11.636;2023-08-21T04:59:46;5.68;;;5.28;;
9424;SDS011;17139;52.140;11.636;2023-08-21T05:02:13;5.28;;;4.70;;
9424;SDS011;17139;52.140;11.636;2023-08-21T05:04:40;4.47;;;4.10;;
9424;SDS011;17139;52.140;11.636;2023-08-21T05:07:09;4.55;;;4.25;;
9424;SDS011;17139;52.140;11.636;2023-08-21T05:09:36;4.07;;;3.88;;
9424;SDS011;17139;52.140;11.636;2023-08-21T05:12:03;5.10;;;4.70;;
9424;SDS011;17139;52.140;11.636;2023-08-21T05:14:31;4.45;;;4.15;;
9424;SDS011;17139;52.140;11.636;2023-08-21T05:16:58;4.28;;;3.97;;
9424;SDS011;17139;52.140;11.636;2023-08-21T05:19:25;4.72;;;4.43;;
9424;SDS011;17139;52.140;11.636;2023-08-21T05:21:52;4.70;;;4.40;;
9424;SDS011;17139;52.140;11.636;2023-08-21T05:24:20;4.57;;;4.20;;
9424;SDS011;17139;52.140;11.636;2023-08-21T05:26:47;7.90;;;4.30;;
9424;SDS011;17139;52.140;11.636;2023-08-21T05:29:14;4.72;;;4.35;;
9424;SDS011;17139;52.140;11.636;2023-08-21T05:31:41;5.88;;;3.88;;
9424;SDS011;17139;52.140;11.636;2023-08-21T05:34:08;4.28;;;3.90;;
9424;SDS011;17139;52.140;11.636;2023-08-21T05:36:35;5.43;;;3.95;;
9424;SDS011;17139;52.140;11.636;2023-08-21T05:39:02;5.70;;;4.53;;
9424;SDS011;17139;52.140;11.636;2023-08-21T05:41:33;5.70;;;4.47;;
9424;SDS011;17139;52.140;11.636;2023-08-21T05:44:00;4.80;;;4.40;;
9424;SDS011;17139;52.140;11.636;2023-08-21T05:46:27;5.25;;;4.45;;
9424;SDS011;17139;52.140;11.636;2023-08-21T05:48:54;6.75;;;3.95;;
9424;SDS011;17139;52.140;11.636;2023-08-21T05:51:21;3.58;;;3.38;;
9424;SDS011;17139;52.140;11.636;2023-08-21T05:53:48;5.13;;;3.80;;
9424;SDS011;17139;52.140;11.636;2023-08-21T05:56:15;3.85;;;3.60;;
9424;SDS011;17139;52.140;11.636;2023-08-21T05:58:43;4.30;;;3.90;;
9424;SDS011;17139;52.140;11.636;2023-08-21T06:01:10;4.50;;;3.83;;
9424;SDS011;17139;52.140;11.636;2023-08-21T06:03:38;6.50;;;4.13;;
9424;SDS011;17139;52.140;11.636;2023-08-21T06:06:05;6.17;;;4.03;;
9424;SDS011;17139;52.140;11.636;2023-08-21T06:08:32;4.30;;;3.20;;
9424;SDS011;17139;52.140;11.636;2023-08-21T06:10:59;3.63;;;3.42;;
9424;SDS011;17139;52.140;11.636;2023-08-21T06:13:26;4.03;;;3.53;;
9424;SDS011;17139;52.140;11.636;2023-08-21T06:15:54;3.60;;;3.40;;
9424;SDS011;17139;52.140;11.636;2023-08-21T06:18:21;3.67;;;3.47;;
9424;SDS011;17139;52.140;11.636;2023-08-21T06:20:48;4.00;;;3.60;;
9424;SDS011;17139;52.140;11.636;2023-08-21T06:23:18;5.65;;;3.53;;
9424;SDS011;17139;52.140;11.636;2023-08-21T06:25:47;4.18;;;3.80;;
9424;SDS011;17139;52.140;11.636;2023-08-21T06:28:14;4.22;;;3.83;;
9424;SDS011;17139;52.140;11.636;2023-08-21T06:30:41;4.25;;;3.72;;
9424;SDS011;17139;52.140;11.636;2023-08-21T06:33:10;4.13;;;3.15;;
9424;SDS011;17139;52.140;11.636;2023-08-21T06:35:38;3.08;;;2.95;;
9424;SDS011;17139;52.140;11.636;2023-08-21T06:38:05;3.25;;;2.88;;
9424;SDS011;17139;52.140;11.636;2023-08-21T06:40:32;3.90;;;3.30;;
9424;SDS011;17139;52.140;11.636;2023-08-21T06:42:59;5.00;;;3.40;;
9424;SDS011;17139;52.140;11.636;2023-08-21T06:45:26;5.07;;;3.55;;
9424;SDS011;17139;52.140;11.636;2023-08-21T06:47:55;3.22;;;2.90;;
9424;SDS011;17139;52.140;11.636;2023-08-21T06:50:24;3.50;;;3.20;;
9424;SDS011;17139;52.140;11.636;2023-08-21T06:52:51;3.25;;;3.00;;
9424;SDS011;17139;52.140;11.636;2023-08-21T06:55:18;4.65;;;3.17;;
9424;SDS011;17139;52.140;11.636;2023-08-21T06:57:45;4.57;;;2.70;;
9424;SDS011;17139;52.140;11.636;2023-08-21T07:00:12;3.40;;;3.20;;
9424;SDS011;17139;52.140;11.636;2023-08-21T07:02:40;4.78;;;2.78;;
9424;SDS011;17139;52.140;11.636;2023-08-21T07:05:07;3.25;;;3.10;;
9424;SDS011;17139;52.140;11.636;2023-08-21T07:07:35;3.30;;;3.00;;
9424;SDS011;17139;52.140;11.636;2023-08-21T07:10:03;4.57;;;3.40;;
9424;SDS011;17139;52.140;11.636;2023-08-21T07:12:30;3.90;;;2.88;;
9424;SDS011;17139;52.140;11.636;2023-08-21T07:14:57;3.45;;;2.85;;
9424;SDS011;17139;52.140;11.636;2023-08-21T07:17:24;3.53;;;2.60;;
9424;SDS011;17139;52.140;11.636;2023-08-21T07:19:51;3.72;;;3.15;;
9424;SDS011;17139;52.140;11.636;2023-08-21T07:22:18;4.07;;;3.10;;
9424;SDS011;17139;52.140;11.636;2023-08-21T07:24:47;7.20;;;3.22;;
9424;SDS011;17139;52.140;11.636;2023-08-21T07:27:14;2.83;;;2.63;;
9424;SDS011;17139;52.140;11.636;2023-08-21T07:29:41;3.78;;;3.00;;
9424;SDS011;17139;52.140;11.636;2023-08-21T07:32:08;2.88;;;2.08;;
9424;SDS011;17139;52.140;11.636;2023-08-21T07:34:35;2.72;;;2.30;;
9424;SDS011;17139;52.140;11.636;2023-08-21T07:37:02;2.10;;;2.00;;
9424;SDS011;17139;52.140;11.636;2023-08-21T07:39:29;4.72;;;1.85;;
9424;SDS011;17139;52.140;11.636;2023-08-21T07:41:57;1.83;;;1.73;;
9424;SDS011;17139;52.140;11.636;2023-08-21T07:44:25;1.90;;;1.80;;
9424;SDS011;17139;52.140;11.636;2023-08-21T07:46:52;3.83;;;2.47;;
9424;SDS011;17139;52.140;11.636;2023-08-21T07:49:19;1.90;;;1.80;;
9424;SDS011;17139;52.140;11.636;2023-08-21T07:51:46;1.58;;;1.48;;
9424;SDS011;17139;52.140;11.636;2023-08-21T07:54:13;1.75;;;1.65;;
9424;SDS011;17139;52.140;11.636;2023-08-21T07:56:40;2.75;;;1.67;;
9424;SDS011;17139;52.140;11.636;2023-08-21T07:59:09;3.70;;;1.98;;
9424;SDS011;17139;52.140;11.636;2023-08-21T08:01:36;1.92;;;1.83;;
9424;SDS011;17139;52.140;11.636;2023-08-21T08:04:03;2.10;;;2.00;;
9424;SDS011;17139;52.140;11.636;2023-08-21T08:06:31;1.80;;;1.70;;
9424;SDS011;17139;52.140;11.636;2023-08-21T08:08:58;1.97;;;1.87;;
9424;SDS011;17139;52.140;11.636;2023-08-21T08:11:25;1.50;;;1.45;;
9424;SDS011;17139;52.140;11.636;2023-08-21T08:13:52;1.60;;;1.50;;
9424;SDS011;17139;52.140;11.636;2023-08-21T08:16:21;1.80;;;1.70;;
9424;SDS011;17139;52.140;11.636;2023-08-21T08:18:48;2.42;;;1.50;;
9424;SDS011;17139;52.140;11.636;2023-08-21T08:21:15;1.95;;;1.65;;
9424;SDS011;17139;52.140;11.636;2023-08-21T08:23:42;2.60;;;1.80;;
9424;SDS011;17139;52.140;11.636;2023-08-21T08:26:09;1.83;;;1.73;;
9424;SDS011;17139;52.140;11.636;2023-08-21T08:28:37;1.85;;;1.75;;
9424;SDS011;17139;52.140;11.636;2023-08-21T08:31:04;2.20;;;2.05;;
9424;SDS011;17139;52.140;11.636;2023-08-21T08:33:32;1.95;;;1.85;;
9424;SDS011;17139;52.140;11.636;2023-08-21T08:35:59;2.10;;;1.90;;
9424;SDS011;17139;52.140;11.636;2023-08-21T08:38:26;1.65;;;1.55;;
9424;SDS011;17139;52.140;11.636;2023-08-21T08:40:53;2.03;;;1.90;;
9424;SDS011;17139;52.140;11.636;2023-08-21T08:43:22;1.85;;;1.70;;
9424;SDS011;17139;52.140;11.636;2023-08-21T08:45:53;2.53;;;1.80;;
9424;SDS011;17139;52.140;11.636;2023-08-21T08:48:22;2.00;;;1.80;;
9424;SDS011;17139;52.140;11.636;2023-08-21T08:50:53;2.03;;;1.73;;
9424;SDS011;17139;52.140;11.636;2023-08-21T08:53:20;1.73;;;1.63;;
9424;SDS011;17139;52.140;11.636;2023-08-21T08:55:48;2.05;;;1.45;;
9424;SDS011;17139;52.140;11.636;2023-08-21T08:58:15;1.50;;;1.40;;
9424;SDS011;17139;52.140;11.636;2023-08-21T09:00:42;1.65;;;1.40;;
9424;SDS011;17139;52.140;11.636;2023-08-21T09:03:09;2.45;;;1.77;;
9424;SDS011;17139;52.140;11.636;2023-08-21T09:05:38;2.47;;;1.70;;
9424;SDS011;17139;52.140;11.636;2023-08-21T09:08:10;4.10;;;1.80;;
9424;SDS011;17139;52.140;11.636;2023-08-21T09:10:38;2.20;;;1.92;;
9424;SDS011;17139;52.140;11.636;2023-08-21T09:13:11;3.22;;;1.52;;
9424;SDS011;17139;52.140;11.636;2023-08-21T09:15:40;1.67;;;1.58;;
9424;SDS011;17139;52.140;11.636;2023-08-21T09:18:08;5.22;;;1.33;;
9424;SDS011;17139;52.140;11.636;2023-08-21T09:20:36;1.30;;;1.30;;
9424;SDS011;17139;52.140;11.636;2023-08-21T09:23:04;4.30;;;1.60;;
9424;SDS011;17139;52.140;11.636;2023-08-21T09:25:35;3.13;;;1.70;;
9424;SDS011;17139;52.140;11.636;2023-08-21T09:28:04;1.80;;;1.70;;
9424;SDS011;17139;52.140;11.636;2023-08-21T09:30:45;3.17;;;1.95;;
9424;SDS011;17139;52.140;11.636;2023-08-21T09:33:13;1.85;;;1.75;;
9424;SDS011;17139;52.140;11.636;2023-08-21T09:35:43;1.98;;;1.88;;
9424;SDS011;17139;52.140;11.636;2023-08-21T09:38:10;1.70;;;1.60;;
9424;SDS011;17139;52.140;11.636;2023-08-21T09:40:42;1.50;;;1.40;;
9424;SDS011;17139;52.140;11.636;2023-08-21T09:43:15;1.60;;;1.50;;
9424;SDS011;17139;52.140;11.636;2023-08-21T09:45:45;1.65;;;1.55;;
9424;SDS011;17139;52.140;11.636;2023-08-21T09:48:13;2.67;;;1.50;;
9424;SDS011;17139;52.140;11.636;2023-08-21T09:50:40;1.88;;;1.77;;
9424;SDS011;17139;52.140;11.636;2023-08-21T09:53:08;1.95;;;1.80;;
9424;SDS011;17139;52.140;11.636;2023-08-21T09:55:35;5.18;;;1.70;;
9424;SDS011;17139;52.140;11.636;2023-08-21T09:58:06;2.08;;;1.95;;
9424;SDS011;17139;52.140;11.636;2023-08-21T10:00:33;1.60;;;1.60;;
9424;SDS011;17139;52.140;11.636;2023-08-21T10:03:02;1.98;;;1.58;;
9424;SDS011;17139;52.140;11.636;2023-08-21T10:05:32;2.33;;;2.13;;
9424;SDS011;17139;52.140;11.636;2023-08-21T10:08:00;2.50;;;2.30;;
9424;SDS011;17139;52.140;11.636;2023-08-21T10:10:29;2.95;;;1.80;;
9424;SDS011;17139;52.140;11.636;2023-08-21T10:12:57;1.98;;;1.88;;
9424;SDS011;17139;52.140;11.636;2023-08-21T10:15:27;2.08;;;1.85;;
9424;SDS011;17139;52.140;11.636;2023-08-21T10:17:55;2.00;;;1.90;;
9424;SDS011;17139;52.140;11.636;2023-08-21T10:20:24;3.28;;;1.70;;
9424;SDS011;17139;52.140;11.636;2023-08-21T10:22:52;1.83;;;1.73;;
9424;SDS011;17139;52.140;11.636;2023-08-21T10:25:21;2.45;;;1.92;;
9424;SDS011;17139;52.140;11.636;2023-08-21T10:27:51;3.50;;;2.00;;
9424;SDS011;17139;52.140;11.636;2023-08-21T10:30:20;1.60;;;1.60;;
9424;SDS011;17139;52.140;11.636;2023-08-21T10:32:50;1.83;;;1.65;;
9424;SDS011;17139;52.140;11.636;2023-08-21T10:35:18;1.70;;;1.60;;
9424;SDS011;17139;52.140;11.636;2023-08-21T10:38:05;2.17;;;1.60;;
9424;SDS011;17139;52.140;11.636;2023-08-21T10:40:34;1.45;;;1.40;;
9424;SDS011;17139;52.140;11.636;2023-08-21T10:43:01;1.60;;;1.50;;
9424;SDS011;17139;52.140;11.636;2023-08-21T10:45:29;1.52;;;1.52;;
9424;SDS011;17139;52.140;11.636;2023-08-21T10:47:58;1.73;;;1.63;;
9424;SDS011;17139;52.140;11.636;2023-08-21T10:50:26;3.47;;;1.58;;
9424;SDS011;17139;52.140;11.636;2023-08-21T10:52:53;3.17;;;1.45;;
9424;SDS011;17139;52.140;11.636;2023-08-21T10:55:20;3.30;;;1.50;;
9424;SDS011;17139;52.140;11.636;2023-08-21T10:57:48;1.75;;;1.50;;
9424;SDS011;17139;52.140;11.636;2023-08-21T11:00:16;1.85;;;1.65;;
9424;SDS011;17139;52.140;11.636;2023-08-21T11:02:46;2.13;;;1.38;;
9424;SDS011;17139;52.140;11.636;2023-08-21T11:05:18;2.60;;;1.50;;
9424;SDS011;17139;52.140;11.636;2023-08-21T11:07:45;1.23;;;1.23;;
9424;SDS011;17139;52.140;11.636;2023-08-21T11:10:14;2.15;;;1.65;;
9424;SDS011;17139;52.140;11.636;2023-08-21T11:12:50;2.05;;;1.48;;
9424;SDS011;17139;52.140;11.636;2023-08-21T11:15:20;1.77;;;1.52;;
9424;SDS011;17139;52.140;11.636;2023-08-21T11:17:52;1.83;;;1.73;;
9424;SDS011;17139;52.140;11.636;2023-08-21T11:20:21;1.77;;;1.60;;
9424;SDS011;17139;52.140;11.636;2023-08-21T11:22:49;3.30;;;1.55;;
9424;SDS011;17139;52.140;11.636;2023-08-21T11:25:16;2.20;;;1.92;;
9424;SDS011;17139;52.140;11.636;2023-08-21T11:27:43;2.22;;;1.67;;
9424;SDS011;17139;52.140;11.636;2023-08-21T11:30:11;2.28;;;1.80;;
9424;SDS011;17139;52.140;11.636;2023-08-21T11:32:39;1.63;;;1.52;;
9424;SDS011;17139;52.140;11.636;2023-08-21T11:35:06;1.55;;;1.45;;
9424;SDS011;17139;52.140;11.636;2023-08-21T11:37:42;1.60;;;1.50;;
9424;SDS011;17139;52.140;11.636;2023-08-21T11:40:10;1.38;;;1.38;;
9424;SDS011;17139;52.140;11.636;2023-08-21T11:42:39;1.70;;;1.60;;
9424;SDS011;17139;52.140;11.636;2023-08-21T11:45:06;3.03;;;1.48;;
9424;SDS011;17139;52.140;11.636;2023-08-21T11:47:36;1.92;;;1.40;;
9424;SDS011;17139;52.140;11.636;2023-08-21T11:50:06;1.52;;;1.20;;
9424;SDS011;17139;52.140;11.636;2023-08-21T11:52:36;1.52;;;1.42;;
9424;SDS011;17139;52.140;11.636;2023-08-21T11:55:07;1.40;;;1.30;;
9424;SDS011;17139;52.140;11.636;2023-08-21T11:57:35;1.70;;;1.60;;
9424;SDS011;17139;52.140;11.636;2023-08-21T12:00:13;1.55;;;1.38;;
9424;SDS011;17139;52.140;11.636;2023-08-21T12:02:43;1.48;;;1.38;;
9424;SDS011;17139;52.140;11.636;2023-08-21T12:05:20;2.85;;;1.45;;
9424;SDS011;17139;52.140;11.636;2023-08-21T12:07:48;2.25;;;1.27;;
9424;SDS011;17139;52.140;11.636;2023-08-21T12:10:21;1.65;;;1.50;;
9424;SDS011;17139;52.140;11.636;2023-08-21T12:12:49;2.95;;;1.60;;
9424;SDS011;17139;52.140;11.636;2023-08-21T12:15:16;1.38;;;1.27;;
9424;SDS011;17139;52.140;11.636;2023-08-21T12:17:43;1.92;;;1.40;;
9424;SDS011;17139;52.140;11.636;2023-08-21T12:20:10;3.40;;;1.52;;
9424;SDS011;17139;52.140;11.636;2023-08-21T12:22:39;2.92;;;1.45;;
9424;SDS011;17139;52.140;11.636;2023-08-21T12:25:08;1.65;;;1.55;;
9424;SDS011;17139;52.140;11.636;2023-08-21T12:27:36;1.48;;;1.40;;
9424;SDS011;17139;52.140;11.636;2023-08-21T12:30:07;1.40;;;1.30;;
9424;SDS011;17139;52.140;11.636;2023-08-21T12:32:35;1.27;;;1.27;;
9424;SDS011;17139;52.140;11.636;2023-08-21T12:35:02;1.58;;;1.50;;
9424;SDS011;17139;52.140;11.636;2023-08-21T12:37:29;1.50;;;1.27;;
9424;SDS011;17139;52.140;11.636;2023-08-21T12:39:56;2.53;;;1.23;;
9424;SDS011;17139;52.140;11.636;2023-08-21T12:42:25;1.10;;;1.10;;
9424;SDS011;17139;52.140;11.636;2023-08-21T12:44:52;2.00;;;1.58;;
9424;SDS011;17139;52.140;11.636;2023-08-21T12:47:19;1.33;;;1.15;;
9424;SDS011;17139;52.140;11.636;2023-08-21T12:49:46;2.40;;;1.33;;
9424;SDS011;17139;52.140;11.636;2023-08-21T12:52:14;2.38;;;1.42;;
9424;SDS011;17139;52.140;11.636;2023-08-21T12:54:41;3.85;;;1.40;;
9424;SDS011;17139;52.140;11.636;2023-08-21T12:57:08;1.40;;;1.38;;
9424;SDS011;17139;52.140;11.636;2023-08-21T12:59:37;1.40;;;1.30;;
9424;SDS011;17139;52.140;11.636;2023-08-21T13:02:04;1.70;;;1.60;;
9424;SDS011;17139;52.140;11.636;2023-08-21T13:04:34;1.20;;;1.10;;
9424;SDS011;17139;52.140;11.636;2023-08-21T13:07:02;1.27;;;1.20;;
9424;SDS011;17139;52.140;11.636;2023-08-21T13:09:29;1.15;;;1.15;;
9424;SDS011;17139;52.140;11.636;2023-08-21T13:11:56;2.25;;;1.60;;
9424;SDS011;17139;52.140;11.636;2023-08-21T13:14:23;1.35;;;1.25;;
9424;SDS011;17139;52.140;11.636;2023-08-21T13:16:52;1.98;;;1.30;;
9424;SDS011;17139;52.140;11.636;2023-08-21T13:19:18;3.00;;;1.60;;
9424;SDS011;17139;52.140;11.636;2023-08-21T13:21:46;1.70;;;1.10;;
9424;SDS011;17139;52.140;11.636;2023-08-21T13:24:13;2.13;;;1.30;;
9424;SDS011;17139;52.140;11.636;2023-08-21T13:26:40;1.80;;;1.23;;
9424;SDS011;17139;52.140;11.636;2023-08-21T13:29:07;1.50;;;1.15;;
9424;SDS011;17139;52.140;11.636;2023-08-21T13:31:34;1.10;;;1.10;;
9424;SDS011;17139;52.140;11.636;2023-08-21T13:34:02;3.35;;;1.42;;
9424;SDS011;17139;52.140;11.636;2023-08-21T13:36:29;2.80;;;1.38;;
9424;SDS011;17139;52.140;11.636;2023-08-21T13:38:56;5.43;;;1.80;;
9424;SDS011;17139;52.140;11.636;2023-08-21T13:41:24;4.10;;;1.25;;
9424;SDS011;17139;52.140;11.636;2023-08-21T13:43:51;1.30;;;1.13;;
9424;SDS011;17139;52.140;11.636;2023-08-21T13:46:19;1.58;;;1.48;;
9424;SDS011;17139;52.140;11.636;2023-08-21T13:48:46;1.25;;;1.15;;
9424;SDS011;17139;52.140;11.636;2023-08-21T13:51:14;1.50;;;1.40;;
9424;SDS011;17139;52.140;11.636;2023-08-21T13:53:41;2.05;;;1.30;;
9424;SDS011;17139;52.140;11.636;2023-08-21T13:56:08;2.55;;;1.58;;
9424;SDS011;17139;52.140;11.636;2023-08-21T13:58:35;2.83;;;1.50;;
9424;SDS011;17139;52.140;11.636;2023-08-21T14:01:02;1.58;;;1.30;;
9424;SDS011;17139;52.140;11.636;2023-08-21T14:03:31;4.15;;;1.45;;
9424;SDS011;17139;52.140;11.636;2023-08-21T14:05:58;3.30;;;1.30;;
9424;SDS011;17139;52.140;11.636;2023-08-21T14:08:27;4.45;;;1.50;;
9424;SDS011;17139;52.140;11.636;2023-08-21T14:10:54;1.30;;;1.10;;
9424;SDS011;17139;52.140;11.636;2023-08-21T14:13:21;1.50;;;1.02;;
9424;SDS011;17139;52.140;11.636;2023-08-21T14:15:48;1.52;;;1.42;;
9424;SDS011;17139;52.140;11.636;2023-08-21T14:18:15;1.52;;;1.10;;
9424;SDS011;17139;52.140;11.636;2023-08-21T14:20:42;2.03;;;1.15;;
9424;SDS011;17139;52.140;11.636;2023-08-21T14:23:09;3.15;;;1.40;;
9424;SDS011;17139;52.140;11.636;2023-08-21T14:25:38;1.40;;;1.25;;
9424;SDS011;17139;52.140;11.636;2023-08-21T14:28:05;2.40;;;1.27;;
9424;SDS011;17139;52.140;11.636;2023-08-21T14:30:32;1.52;;;1.25;;
9424;SDS011;17139;52.140;11.636;2023-08-21T14:32:59;1.63;;;1.30;;
9424;SDS011;17139;52.140;11.636;2023-08-21T14:35:26;1.58;;;1.15;;
9424;SDS011;17139;52.140;11.636;2023-08-21T14:37:53;1.75;;;1.38;;
9424;SDS011;17139;52.140;11.636;2023-08-21T14:40:20;1.17;;;1.17;;
9424;SDS011;17139;52.140;11.636;2023-08-21T14:42:49;2.75;;;1.30;;
9424;SDS011;17139;52.140;11.636;2023-08-21T14:45:16;1.05;;;1.05;;
9424;SDS011;17139;52.140;11.636;2023-08-21T14:47:43;2.10;;;1.50;;
9424;SDS011;17139;52.140;11.636;2023-08-21T14:50:10;1.90;;;1.40;;
9424;SDS011;17139;52.140;11.636;2023-08-21T14:52:37;2.80;;;1.40;;